createdAt,value
2023-04-16T00:09:31.550Z,81.85
2023-04-16T00:13:52.350Z,81.15
2023-04-16T00:18:19.803Z,81.43
2023-04-16T00:22:47.992Z,82.28
2023-04-16T00:26:54.153Z,82.57
2023-04-16T00:31:02.432Z,82.45
2023-04-16T00:35:31.120Z,82.65
2023-04-16T00:39:35.314Z,81.54
2023-04-16T00:44:01.805Z,83.31
2023-04-16T00:48:10.345Z,82.82
2023-04-16T00:52:38.244Z,81.97
2023-04-16T00:57:09.782Z,82.12
2023-04-16T01:01:27.342Z,82.49
2023-04-16T01:05:46.055Z,82.86
2023-04-16T01:09:50.469Z,83.50
2023-04-16T01:14:11.744Z,83.57
2023-04-16T01:18:43.824Z,83.97
2023-04-16T01:22:51.895Z,83.24
2023-04-16T01:27:23.931Z,83.76
2023-04-16T01:32:04.181Z,83.65
2023-04-16T01:36:29.415Z,83.35
2023-04-16T01:40:50.535Z,82.99
2023-04-16T01:45:08.139Z,83.22
2023-04-16T01:49:14.253Z,83.39
2023-04-16T01:53:19.580Z,83.18
2023-04-16T01:57:31.581Z,83.57
2023-04-16T02:01:43.838Z,83.52
2023-04-16T02:05:55.787Z,84.06
2023-04-16T02:10:24.535Z,84.37
2023-04-16T02:14:49.658Z,84.13
2023-04-16T02:19:29.426Z,83.94
2023-04-16T02:24:01.706Z,84.31
2023-04-16T02:28:29.760Z,84.67
2023-04-16T02:33:04.394Z,84.39
2023-04-16T02:37:37.096Z,84.12
2023-04-16T02:42:05.149Z,84.45
2023-04-16T02:46:37.504Z,84.07
2023-04-16T02:51:02.750Z,84.25
2023-04-16T02:55:30.830Z,84.44
2023-04-16T03:00:03.127Z,84.39
2023-04-16T03:08:17.155Z,84.52
2023-04-16T03:12:30.762Z,85.29
2023-04-16T03:16:56.065Z,85.22
2023-04-16T03:21:35.700Z,84.89
2023-04-16T03:25:42.639Z,85.33
2023-04-16T03:30:02.657Z,84.82
2023-04-16T03:34:23.789Z,85.61
2023-04-16T03:38:49.814Z,85.53
2023-04-16T03:43:33.749Z,84.96
2023-04-16T03:48:03.294Z,85.57
2023-04-16T03:52:13.879Z,85.37
2023-04-16T03:56:46.833Z,84.39
2023-04-16T04:01:18.617Z,85.43
2023-04-16T04:05:55.196Z,84.96
2023-04-16T04:10:37.917Z,84.81
2023-04-16T04:15:03.011Z,84.37
2023-04-16T04:19:09.026Z,84.38
2023-04-16T04:23:30.711Z,83.78
2023-04-16T04:27:40.398Z,82.74
2023-04-16T04:32:09.956Z,81.96
2023-04-16T04:36:39.371Z,81.34
2023-04-16T04:41:00.496Z,80.99
2023-04-16T04:45:04.717Z,79.67
2023-04-16T04:49:33.126Z,78.10
2023-04-16T04:53:52.397Z,78.46
2023-04-16T04:57:56.510Z,79.13
2023-04-16T05:02:05.115Z,78.88
2023-04-16T05:06:13.344Z,78.64
2023-04-16T05:10:20.940Z,78.51
2023-04-16T05:14:51.804Z,78.11
2023-04-16T05:18:50.895Z,77.77
2023-04-16T05:22:55.260Z,76.98
2023-04-16T05:27:19.621Z,76.87
2023-04-16T05:39:37.171Z,75.11
2023-04-16T05:43:47.097Z,75.17
2023-04-16T05:47:59.275Z,74.51
2023-04-16T05:52:18.987Z,74.06
2023-04-16T05:56:15.423Z,73.54
2023-04-16T06:00:41.314Z,72.91
2023-04-16T06:04:47.756Z,73.14
2023-04-16T06:08:26.438Z,72.85
2023-04-16T06:12:10.729Z,71.93
2023-04-16T06:15:45.572Z,71.35
2023-04-16T06:20:02.554Z,71.42
2023-04-16T06:23:12.260Z,70.21
2023-04-16T06:27:13.711Z,68.56
2023-04-16T06:30:24.550Z,67.78
2023-04-16T06:33:35.213Z,67.19
2023-04-16T06:37:08.361Z,68.20
2023-04-16T06:40:26.097Z,67.27
2023-04-16T06:44:22.030Z,67.96
2023-04-16T06:48:16.282Z,68.26
2023-04-16T06:51:36.427Z,65.92
2023-04-16T06:54:42.401Z,66.39
2023-04-16T06:57:49.520Z,66.30
2023-04-16T07:01:13.016Z,65.95
2023-04-16T07:08:53.225Z,64.79
2023-04-16T07:12:17.940Z,65.10
2023-04-16T07:15:23.845Z,64.28
2023-04-16T07:18:33.123Z,63.71
2023-04-16T07:21:45.139Z,64.77
2023-04-16T07:25:02.412Z,64.19
2023-04-16T07:28:28.743Z,63.78
2023-04-16T07:31:53.098Z,64.54
2023-04-16T07:34:57.260Z,63.88
2023-04-16T07:38:31.491Z,63.53
2023-04-16T07:42:02.828Z,62.59
2023-04-16T07:45:28.713Z,63.81
2023-04-16T07:48:49.676Z,63.43
2023-04-16T07:52:13.856Z,62.84
2023-04-16T07:55:19.007Z,62.56
2023-04-16T07:58:23.717Z,62.65
2023-04-16T08:01:36.152Z,63.42
2023-04-16T08:08:30.809Z,62.15
2023-04-16T08:11:51.468Z,61.34
2023-04-16T08:15:20.266Z,61.60
2023-04-16T08:18:31.662Z,61.79
2023-04-16T08:21:35.669Z,61.17
2023-04-16T08:24:38.749Z,60.98
2023-04-16T08:27:43.900Z,61.08
2023-04-16T08:30:46.898Z,59.60
2023-04-16T08:38:08.418Z,58.71
2023-04-16T08:41:15.966Z,57.90
2023-04-16T08:44:32.249Z,58.24
2023-04-16T08:47:39.158Z,57.77
2023-04-16T08:50:55.650Z,57.01
2023-04-16T08:54:04.358Z,57.21
2023-04-16T08:57:19.850Z,55.10
2023-04-16T09:00:42.079Z,55.02
2023-04-16T09:03:49.290Z,54.62
2023-04-16T09:07:10.283Z,54.12
2023-04-16T09:10:15.024Z,53.87
2023-04-16T09:13:22.927Z,53.43
2023-04-16T09:16:43.277Z,52.35
2023-04-16T09:20:06.578Z,54.00
2023-04-16T09:23:11.530Z,54.04
2023-04-16T09:26:23.286Z,54.61
2023-04-16T09:29:56.435Z,53.48
2023-04-16T09:33:25.339Z,53.73
2023-04-16T09:36:32.417Z,52.81
2023-04-16T09:39:36.303Z,52.73
2023-04-16T09:42:41.256Z,50.98
2023-04-16T09:45:52.040Z,52.75
2023-04-16T09:49:10.564Z,52.56
2023-04-16T09:52:43.423Z,52.20
2023-04-16T09:55:47.649Z,51.53
2023-04-16T09:58:51.152Z,51.04
2023-04-16T10:02:15.669Z,49.89
2023-04-16T10:05:28.088Z,48.43
2023-04-16T10:08:31.482Z,49.77
2023-04-16T10:11:35.012Z,48.86
2023-04-16T10:14:46.861Z,46.76
2023-04-16T10:17:53.125Z,46.52
2023-04-16T10:20:57.605Z,47.00
2023-04-16T10:24:00.717Z,48.28
2023-04-16T10:27:04.128Z,49.40
2023-04-16T10:30:09.868Z,47.45
2023-04-16T10:33:15.096Z,49.19
2023-04-16T10:36:43.076Z,48.81
2023-04-16T10:39:53.628Z,46.87
2023-04-16T10:43:01.165Z,47.53
2023-04-16T10:46:27.172Z,46.96
2023-04-16T10:49:32.168Z,46.10
2023-04-16T10:52:35.473Z,45.91
2023-04-16T10:56:17.530Z,44.87
2023-04-16T10:59:36.262Z,46.67
2023-04-16T11:03:08.892Z,45.19
2023-04-16T11:06:32.279Z,45.50
2023-04-16T11:09:59.763Z,46.64
2023-04-16T11:13:11.272Z,44.40
2023-04-16T11:16:42.931Z,45.62
2023-04-16T11:19:48.508Z,43.94
2023-04-16T11:22:58.775Z,43.78
2023-04-16T11:26:28.243Z,43.96
2023-04-16T11:29:32.535Z,43.90
2023-04-16T11:32:55.925Z,43.15
2023-04-16T11:36:01.817Z,42.34
2023-04-16T11:39:05.689Z,42.36
2023-04-16T11:42:23.258Z,41.96
2023-04-16T11:45:34.799Z,42.06
2023-04-16T11:49:28.011Z,41.69
2023-04-16T11:52:36.545Z,42.00
2023-04-16T11:55:57.446Z,42.29
2023-04-16T12:00:02.532Z,43.27
2023-04-16T12:03:47.443Z,43.44
2023-04-16T12:07:19.019Z,43.62
2023-04-16T12:10:35.313Z,42.71
2023-04-16T12:14:43.596Z,43.51
2023-04-16T12:18:27.430Z,43.06
2023-04-16T12:21:42.335Z,43.62
2023-04-16T12:24:56.783Z,43.19
2023-04-16T12:28:28.850Z,42.78
2023-04-16T12:31:40.792Z,43.41
2023-04-16T12:35:12.468Z,44.40
2023-04-16T12:38:56.886Z,43.51
2023-04-16T12:42:10.948Z,43.61
2023-04-16T12:45:26.931Z,44.09
2023-04-16T12:48:34.700Z,43.68
2023-04-16T12:52:04.530Z,43.10
2023-04-16T12:55:10.948Z,43.87
2023-04-16T12:58:54.347Z,44.36
2023-04-16T13:02:17.796Z,45.04
2023-04-16T13:05:45.797Z,44.21
2023-04-16T13:17:31.404Z,43.02
2023-04-16T13:20:39.357Z,42.01
2023-04-16T13:23:52.033Z,41.83
2023-04-16T13:27:05.193Z,42.67
2023-04-16T13:30:33.668Z,42.77
2023-04-16T13:34:26.105Z,43.27
2023-04-16T13:37:35.138Z,42.63
2023-04-16T13:40:42.774Z,42.98
2023-04-16T13:43:50.515Z,43.68
2023-04-16T13:47:03.056Z,42.89
2023-04-16T13:50:13.736Z,42.94
2023-04-16T13:53:42.111Z,42.94
2023-04-16T13:57:09.654Z,43.22
2023-04-16T14:00:28.317Z,43.08
2023-04-16T14:03:55.135Z,43.55
2023-04-16T14:07:39.959Z,42.58
2023-04-16T14:12:01.476Z,41.80
2023-04-16T14:15:45.261Z,41.94
2023-04-16T14:18:52.847Z,42.27
2023-04-16T14:22:18.489Z,42.26
2023-04-16T14:25:25.456Z,42.09
2023-04-16T14:28:47.946Z,42.58
2023-04-16T14:32:05.408Z,42.20
2023-04-16T14:35:35.122Z,42.42
2023-04-16T14:39:25.124Z,41.53
2023-04-16T14:42:30.394Z,41.62
2023-04-16T14:46:55.835Z,41.83
2023-04-16T14:50:08.563Z,41.59
2023-04-16T14:53:17.831Z,41.75
2023-04-16T14:56:28.805Z,41.40
2023-04-16T15:00:25.146Z,41.34
2023-04-16T15:04:57.331Z,41.22
2023-04-16T15:08:46.839Z,41.97
2023-04-16T15:12:10.899Z,41.21
2023-04-16T15:15:40.695Z,41.80
2023-04-16T15:19:22.859Z,41.96
2023-04-16T15:23:06.210Z,42.33
2023-04-16T15:26:11.753Z,42.33
2023-04-16T15:30:21.955Z,42.28
2023-04-16T15:33:40.232Z,41.82
2023-04-16T15:37:01.319Z,42.22
2023-04-16T15:40:07.956Z,42.26
2023-04-16T15:43:48.312Z,42.94
2023-04-16T15:47:25.851Z,42.61
2023-04-16T15:50:31.976Z,42.79
2023-04-16T15:54:19.441Z,42.67
2023-04-16T15:57:43.448Z,42.24
2023-04-16T16:05:09.128Z,42.83
2023-04-16T16:08:15.524Z,42.48
2023-04-16T16:11:44.463Z,43.15
2023-04-16T16:15:36.097Z,43.39
2023-04-16T16:18:55.043Z,43.23
2023-04-16T16:22:03.485Z,43.15
2023-04-16T16:25:37.979Z,43.30
2023-04-16T16:28:49.418Z,43.68
2023-04-16T16:32:41.002Z,44.06
2023-04-16T16:36:25.715Z,44.28
2023-04-16T16:40:25.994Z,44.62
2023-04-16T16:43:51.617Z,44.92
2023-04-16T16:47:08.257Z,45.25
2023-04-16T16:50:56.190Z,45.77
2023-04-16T16:54:22.649Z,46.22
2023-04-16T16:57:29.694Z,46.62
2023-04-16T17:00:33.075Z,47.14
2023-04-16T17:08:07.597Z,48.69
2023-04-16T17:11:28.106Z,49.37
2023-04-16T17:15:12.575Z,50.33
2023-04-16T17:18:34.862Z,51.09
2023-04-16T17:22:02.953Z,51.71
2023-04-16T17:26:16.236Z,52.44
2023-04-16T17:30:47.364Z,52.96
2023-04-16T17:34:37.125Z,53.34
2023-04-16T17:38:21.185Z,53.64
2023-04-16T17:42:35.509Z,53.70
2023-04-16T17:46:46.450Z,54.00
2023-04-16T17:51:21.874Z,54.61
2023-04-16T17:55:21.170Z,55.69
2023-04-16T17:59:07.495Z,57.78
2023-04-16T18:02:56.759Z,59.14
2023-04-16T18:06:54.824Z,60.17
2023-04-16T18:11:02.527Z,61.04
2023-04-16T18:15:11.750Z,61.80
2023-04-16T18:19:16.547Z,62.35
2023-04-16T18:23:48.120Z,62.82
2023-04-16T18:28:13.687Z,63.24
2023-04-16T18:32:06.789Z,63.65
2023-04-16T18:36:03.636Z,63.90
2023-04-16T18:40:08.319Z,64.40
2023-04-16T18:44:20.670Z,64.87
2023-04-16T18:48:34.622Z,65.07
2023-04-16T18:52:59.709Z,65.37
2023-04-16T18:56:47.803Z,65.80
2023-04-16T19:00:54.415Z,65.93
2023-04-16T19:05:11.554Z,65.93
2023-04-16T19:09:15.142Z,66.02
2023-04-16T19:13:21.639Z,65.81
2023-04-16T19:17:34.935Z,65.64
2023-04-16T19:22:01.850Z,65.83
2023-04-16T19:26:25.779Z,66.01
2023-04-16T19:30:48.594Z,66.24
2023-04-16T19:34:54.500Z,66.46
2023-04-16T19:39:16.705Z,67.26
2023-04-16T19:43:32.547Z,66.08
2023-04-16T19:47:56.872Z,65.88
2023-04-16T19:52:03.610Z,65.95
2023-04-16T19:56:11.964Z,66.10
2023-04-16T20:00:32.677Z,66.02
2023-04-16T20:04:53.602Z,66.36
2023-04-16T20:08:51.576Z,66.71
2023-04-16T20:13:17.404Z,67.27
2023-04-16T20:17:24.907Z,67.51
2023-04-16T20:21:49.365Z,67.43
2023-04-16T20:25:38.427Z,67.26
2023-04-16T20:30:09.972Z,68.06
2023-04-16T20:34:52.304Z,69.03
2023-04-16T20:44:11.856Z,69.64
2023-04-16T20:48:36.841Z,69.62
2023-04-16T20:52:41.512Z,70.00
2023-04-16T20:57:10.551Z,70.48
2023-04-16T21:01:17.039Z,70.46
2023-04-16T21:05:58.565Z,70.82
2023-04-16T21:10:30.708Z,71.15
2023-04-16T21:14:58.225Z,71.88
2023-04-16T21:19:02.426Z,72.27
2023-04-16T21:23:07.296Z,72.17
2023-04-16T21:27:33.048Z,73.91
2023-04-16T21:32:21.276Z,73.47
2023-04-16T21:36:45.390Z,73.95
2023-04-16T21:40:45.201Z,74.03
2023-04-16T21:45:10.504Z,74.42
2023-04-16T21:49:48.966Z,74.38
2023-04-16T21:54:14.944Z,74.76
2023-04-16T21:58:34.221Z,75.19
2023-04-16T22:02:40.415Z,74.97
2023-04-16T22:07:20.662Z,74.13
2023-04-16T22:11:45.363Z,75.59
2023-04-16T22:16:09.432Z,75.85
2023-04-16T22:20:16.719Z,74.72
2023-04-16T22:25:00.462Z,74.84
2023-04-16T22:29:23.812Z,76.15
2023-04-16T22:33:44.343Z,76.32
2023-04-16T22:37:42.878Z,76.19
2023-04-16T22:42:11.203Z,76.30
2023-04-16T22:46:20.896Z,76.39
2023-04-16T22:50:49.462Z,75.81
2023-04-16T22:55:18.507Z,75.99
2023-04-16T22:59:23.235Z,76.50
2023-04-16T23:03:45.698Z,76.72
2023-04-16T23:08:29.293Z,76.49
2023-04-16T23:12:33.871Z,76.83
2023-04-16T23:16:57.856Z,78.46
2023-04-16T23:21:02.092Z,77.83
2023-04-16T23:25:38.887Z,77.69
2023-04-16T23:30:07.689Z,78.77
2023-04-16T23:33:46.487Z,78.81
2023-04-16T23:38:11.118Z,78.58
2023-04-16T23:42:35.452Z,78.25
2023-04-16T23:47:00.240Z,78.85
2023-04-16T23:51:44.652Z,79.14
2023-04-16T23:55:57.886Z,79.78
